Time;durP1;ratioP1;P1;durP2;ratioP2;P2;SDS_P1;SDS_P2;PMS_P1;PMS_P2;Temp;Humidity;BMP_temperature;BMP_pressure;BME280_temperature;BME280_humidity;BME280_pressure;Samples;Min_cycle;Max_cycle;Signal;HPM_P1;HPM_P2
2023/01/21 00:01:20;;;;;;;20.67;14.60;;;3.80;80.20;;;;;;5074906;28;20031;-84
2023/01/21 00:03:46;;;;;;;22.33;15.00;;;3.80;80.20;;;;;;5057403;28;20077;-84
2023/01/21 00:06:17;;;;;;;18.48;13.73;;;3.80;80.20;;;;;;5062469;28;20031;-84
2023/01/21 00:08:42;;;;;;;19.23;13.52;;;3.80;80.20;;;;;;5054770;28;20021;-84
2023/01/21 00:11:13;;;;;;;20.38;14.40;;;3.80;80.80;;;;;;5070793;28;20028;-85
2023/01/21 00:13:40;;;;;;;17.30;13.18;;;3.80;80.20;;;;;;5075015;28;20440;-84
2023/01/21 00:16:07;;;;;;;20.98;14.85;;;3.70;80.20;;;;;;5076787;28;20024;-85
2023/01/21 00:18:33;;;;;;;20.60;14.20;;;3.70;80.20;;;;;;5089150;28;20084;-84
2023/01/21 00:20:59;;;;;;;20.13;13.85;;;3.70;80.30;;;;;;5094061;28;20019;-87
2023/01/21 00:23:25;;;;;;;19.45;13.48;;;3.70;80.20;;;;;;5054332;28;20020;-87
2023/01/21 00:26:03;;;;;;;19.90;14.23;;;3.70;80.20;;;;;;5070724;28;20101;-85
2023/01/21 00:28:30;;;;;;;18.98;13.85;;;3.70;80.30;;;;;;5071061;28;20020;-84
2023/01/21 00:30:58;;;;;;;20.77;13.73;;;3.70;80.20;;;;;;5072987;28;20036;-85
2023/01/21 00:33:24;;;;;;;20.20;14.00;;;3.70;80.20;;;;;;5061344;28;20449;-83
2023/01/21 00:36:21;;;;;;;19.25;13.73;;;3.70;80.20;;;;;;5046589;28;20031;-83
2023/01/21 00:38:50;;;;;;;20.90;14.43;;;3.70;80.30;;;;;;5050613;28;20130;-84
2023/01/21 00:41:16;;;;;;;21.58;14.98;;;3.70;80.20;;;;;;5065175;28;20444;-85
2023/01/21 00:43:42;;;;;;;21.13;14.00;;;3.60;80.20;;;;;;5079406;28;20070;-84
2023/01/21 00:46:09;;;;;;;18.85;13.80;;;3.70;80.20;;;;;;5078001;28;20053;-84
2023/01/21 00:48:35;;;;;;;18.90;13.18;;;3.60;80.20;;;;;;5072942;28;20147;-84
2023/01/21 00:51:01;;;;;;;17.90;13.10;;;3.60;80.20;;;;;;5072571;28;20115;-86
2023/01/21 00:53:29;;;;;;;18.50;12.98;;;3.60;80.20;;;;;;5074091;28;20020;-85
2023/01/21 00:56:00;;;;;;;19.15;12.85;;;3.60;80.20;;;;;;5075501;28;20024;-84
2023/01/21 00:58:26;;;;;;;17.95;13.25;;;3.60;80.20;;;;;;5074513;28;20067;-84
2023/01/21 01:01:01;;;;;;;19.15;13.38;;;3.60;80.20;;;;;;5074155;28;20028;-84
2023/01/21 01:03:26;;;;;;;18.23;12.48;;;3.60;80.30;;;;;;5090966;28;20020;-84
2023/01/21 01:05:52;;;;;;;17.40;12.27;;;3.50;80.10;;;;;;5076860;28;20085;-83
2023/01/21 01:08:18;;;;;;;18.58;13.40;;;3.60;80.20;;;;;;5078605;28;20181;-84
2023/01/21 01:10:44;;;;;;;19.92;13.63;;;3.50;80.10;;;;;;5039567;28;20035;-84
2023/01/21 01:13:09;;;;;;;19.15;13.20;;;3.50;80.10;;;;;;5051994;28;20066;-83
2023/01/21 01:15:35;;;;;;;19.65;13.57;;;3.50;80.10;;;;;;5049205;28;20026;-84
2023/01/21 01:18:01;;;;;;;19.17;12.77;;;3.50;80.70;;;;;;5060145;28;20032;-83
2023/01/21 01:20:27;;;;;;;17.00;12.48;;;3.60;80.20;;;;;;5078519;28;20041;-84
2023/01/21 01:22:52;;;;;;;17.23;12.25;;;3.50;80.10;;;;;;5063427;28;20082;-85
2023/01/21 01:25:18;;;;;;;19.00;12.77;;;3.50;80.10;;;;;;5075330;28;20052;-85
2023/01/21 01:27:44;;;;;;;18.13;12.52;;;3.50;80.10;;;;;;5065903;28;20036;-84
2023/01/21 01:30:10;;;;;;;17.52;12.20;;;3.50;80.00;;;;;;5060459;28;20051;-84
2023/01/21 01:32:36;;;;;;;17.30;12.38;;;3.50;80.00;;;;;;5065067;28;20024;-84
2023/01/21 01:35:02;;;;;;;18.00;11.95;;;3.50;80.00;;;;;;5045594;28;20046;-84
2023/01/21 01:37:27;;;;;;;16.38;11.50;;;3.50;80.00;;;;;;5059433;28;20037;-84
2023/01/21 01:39:53;;;;;;;15.85;11.25;;;3.50;80.00;;;;;;5092047;28;20036;-83
2023/01/21 01:42:19;;;;;;;16.80;11.23;;;3.50;80.00;;;;;;5066293;28;20082;-84
2023/01/21 01:45:11;;;;;;;15.13;11.00;;;3.50;80.00;;;;;;5062709;28;20044;-83
2023/01/21 01:47:42;;;;;;;16.00;11.98;;;3.40;80.00;;;;;;5075780;28;20106;-83
2023/01/21 01:50:13;;;;;;;17.00;11.20;;;3.50;80.00;;;;;;5062464;28;20035;-83
2023/01/21 01:52:40;;;;;;;16.15;11.15;;;3.50;80.00;;;;;;5079576;28;20031;-82
2023/01/21 01:55:07;;;;;;;16.17;11.52;;;3.50;80.00;;;;;;5070395;28;20529;-83
2023/01/21 01:57:36;;;;;;;17.27;11.55;;;3.50;80.00;;;;;;5061251;28;20046;-85
2023/01/21 02:00:07;;;;;;;17.98;12.30;;;3.40;80.00;;;;;;5072600;28;20492;-83
2023/01/21 02:02:39;;;;;;;17.63;11.73;;;3.40;80.00;;;;;;5090951;28;20028;-84
2023/01/21 02:05:07;;;;;;;15.02;10.43;;;3.40;79.90;;;;;;5063826;28;20480;-84
2023/01/21 02:07:42;;;;;;;17.10;12.10;;;3.40;79.90;;;;;;5075781;28;20035;-84
2023/01/21 02:10:11;;;;;;;15.45;10.80;;;3.40;79.90;;;;;;5073796;28;20077;-83
2023/01/21 02:12:40;;;;;;;16.58;11.32;;;3.40;79.90;;;;;;5060076;28;20380;-83
2023/01/21 02:15:06;;;;;;;15.18;10.88;;;3.40;79.90;;;;;;5092227;28;20016;-85
2023/01/21 02:17:38;;;;;;;14.68;10.70;;;3.40;79.90;;;;;;5061354;28;20115;-83
2023/01/21 02:20:53;;;;;;;16.73;11.35;;;3.40;80.00;;;;;;5067049;28;20174;-84
2023/01/21 02:23:44;;;;;;;17.40;10.88;;;3.40;80.00;;;;;;5086642;28;20028;-84
2023/01/21 02:26:39;;;;;;;15.00;10.25;;;3.40;79.90;;;;;;5073953;28;20079;-84
2023/01/21 02:29:27;;;;;;;15.07;10.50;;;3.40;79.90;;;;;;5087165;28;20428;-84
2023/01/21 02:32:20;;;;;;;14.15;9.93;;;3.30;79.80;;;;;;5073171;28;20037;-83
2023/01/21 02:34:46;;;;;;;14.23;9.75;;;3.30;79.80;;;;;;5089129;28;20031;-85
2023/01/21 02:37:23;;;;;;;15.05;10.25;;;3.30;79.80;;;;;;5075038;28;20469;-84
2023/01/21 02:40:24;;;;;;;14.60;10.50;;;3.30;79.90;;;;;;5069220;28;20035;-84
2023/01/21 02:43:14;;;;;;;15.20;10.10;;;3.30;79.90;;;;;;5090685;28;20032;-83
2023/01/21 02:46:04;;;;;;;14.93;10.35;;;3.30;79.80;;;;;;5067933;28;20461;-83
2023/01/21 02:48:38;;;;;;;14.95;10.68;;;3.30;79.90;;;;;;5091297;28;20024;-83
2023/01/21 02:51:04;;;;;;;14.05;9.90;;;3.30;79.90;;;;;;5070227;28;20992;-83
2023/01/21 02:53:34;;;;;;;14.85;10.43;;;3.30;79.80;;;;;;5064002;28;20465;-83
2023/01/21 02:56:07;;;;;;;14.65;9.77;;;3.30;79.90;;;;;;5075016;28;20480;-83
2023/01/21 02:58:36;;;;;;;15.48;10.23;;;3.30;79.90;;;;;;5071178;28;20035;-83
2023/01/21 03:01:24;;;;;;;13.82;9.77;;;3.30;79.90;;;;;;5072259;28;20028;-85
2023/01/21 03:03:59;;;;;;;16.02;10.23;;;3.30;79.90;;;;;;5075419;28;20069;-84
2023/01/21 03:06:47;;;;;;;14.90;10.40;;;3.30;79.90;;;;;;5070702;28;20028;-83
2023/01/21 03:09:25;;;;;;;13.75;9.23;;;3.30;80.50;;;;;;5075908;28;20063;-83
2023/01/21 03:12:23;;;;;;;13.93;9.90;;;3.30;79.80;;;;;;5075143;28;20031;-83
2023/01/21 03:17:52;;;;;;;13.32;9.45;;;3.20;79.80;;;;;;5089003;28;20036;-84
2023/01/21 03:20:23;;;;;;;13.15;9.20;;;3.20;79.80;;;;;;5061976;28;20428;-83
2023/01/21 03:22:54;;;;;;;13.52;9.48;;;3.20;79.80;;;;;;5081923;28;20024;-83
2023/01/21 03:25:21;;;;;;;15.00;9.90;;;3.20;79.80;;;;;;5074658;28;20044;-83
2023/01/21 03:27:48;;;;;;;13.65;9.60;;;3.20;79.80;;;;;;5084902;28;20060;-84
2023/01/21 03:30:16;;;;;;;14.07;10.05;;;3.20;79.80;;;;;;5092272;28;20128;-84
2023/01/21 03:32:45;;;;;;;14.35;9.95;;;3.20;79.80;;;;;;5092685;28;20070;-84
2023/01/21 03:35:15;;;;;;;15.38;10.57;;;3.20;79.80;;;;;;5095624;28;20468;-85
2023/01/21 03:37:47;;;;;;;12.18;8.52;;;3.20;79.80;;;;;;5090916;28;20035;-83
2023/01/21 03:40:24;;;;;;;14.65;9.50;;;3.20;79.80;;;;;;5075313;28;20393;-84
2023/01/21 03:42:51;;;;;;;14.35;9.88;;;3.20;79.80;;;;;;5081013;28;20035;-83
2023/01/21 03:45:37;;;;;;;14.65;10.13;;;3.20;80.50;;;;;;5075841;28;20024;-84
2023/01/21 03:48:19;;;;;;;13.90;10.05;;;3.20;79.80;;;;;;5055855;28;20036;-84
2023/01/21 03:50:54;;;;;;;14.07;10.45;;;3.20;79.80;;;;;;5073759;28;20125;-83
2023/01/21 03:53:20;;;;;;;16.92;10.30;;;3.20;79.70;;;;;;5088576;28;20484;-82
2023/01/21 03:55:49;;;;;;;14.15;10.13;;;3.20;79.80;;;;;;5080852;28;20024;-83
2023/01/21 03:58:15;;;;;;;15.63;9.90;;;3.20;79.80;;;;;;5075815;28;20483;-83
2023/01/21 04:00:41;;;;;;;15.57;9.88;;;3.10;79.70;;;;;;5068434;28;20047;-84
2023/01/21 04:03:06;;;;;;;13.20;9.30;;;3.20;79.80;;;;;;5090973;28;20111;-83
2023/01/21 04:05:34;;;;;;;13.65;9.98;;;3.10;79.70;;;;;;5091841;28;20354;-82
2023/01/21 04:08:00;;;;;;;14.02;8.98;;;3.10;79.70;;;;;;5058864;28;20032;-83
2023/01/21 04:10:25;;;;;;;13.63;9.55;;;3.10;79.70;;;;;;5086128;28;20037;-84
2023/01/21 04:12:51;;;;;;;14.07;10.27;;;3.10;79.70;;;;;;5063389;28;20032;-84
2023/01/21 04:15:17;;;;;;;13.82;10.25;;;3.10;79.70;;;;;;5050452;28;20383;-83
2023/01/21 04:17:42;;;;;;;14.98;9.95;;;3.10;79.70;;;;;;5067759;28;20119;-83
2023/01/21 04:20:09;;;;;;;14.35;9.50;;;3.10;79.70;;;;;;5081712;28;20468;-83
2023/01/21 04:22:35;;;;;;;15.65;10.07;;;3.10;79.70;;;;;;5080476;28;20061;-83
2023/01/21 04:25:00;;;;;;;13.80;9.32;;;3.10;79.70;;;;;;5065634;28;20561;-83
2023/01/21 04:27:26;;;;;;;14.18;9.35;;;3.10;79.70;;;;;;5070845;28;20066;-83
2023/01/21 04:29:52;;;;;;;15.75;10.00;;;3.10;79.80;;;;;;5081297;28;20024;-83
2023/01/21 04:32:18;;;;;;;14.60;9.43;;;3.00;79.70;;;;;;5081025;28;20055;-83
2023/01/21 04:34:43;;;;;;;14.40;10.05;;;3.10;79.80;;;;;;5081435;28;20024;-83
2023/01/21 04:37:09;;;;;;;13.07;9.65;;;3.10;79.70;;;;;;5090125;28;20027;-83
2023/01/21 04:39:35;;;;;;;14.20;9.40;;;3.10;79.80;;;;;;5083710;28;20773;-84
2023/01/21 04:42:01;;;;;;;15.57;10.73;;;3.10;79.70;;;;;;5069710;28;20123;-83
2023/01/21 04:44:26;;;;;;;13.38;9.43;;;3.10;79.70;;;;;;5063142;28;20438;-83
2023/01/21 04:46:52;;;;;;;15.15;10.25;;;3.10;79.70;;;;;;5072404;28;20055;-83
2023/01/21 04:49:18;;;;;;;13.85;9.27;;;3.10;79.70;;;;;;5070185;28;20388;-83
2023/01/21 04:51:44;;;;;;;14.80;9.30;;;3.00;79.60;;;;;;5064668;28;20032;-84
2023/01/21 04:54:10;;;;;;;14.38;9.75;;;3.00;79.70;;;;;;5082853;28;20492;-83
2023/01/21 04:56:36;;;;;;;15.32;10.05;;;3.00;79.70;;;;;;5073778;28;20032;-83
2023/01/21 04:59:01;;;;;;;14.35;9.80;;;3.00;79.60;;;;;;5037547;28;20032;-83
2023/01/21 05:01:27;;;;;;;15.48;10.48;;;3.00;79.70;;;;;;5058469;28;20115;-83
2023/01/21 05:03:53;;;;;;;15.35;9.95;;;3.00;79.70;;;;;;5056660;28;20028;-84
2023/01/21 05:06:18;;;;;;;14.23;9.40;;;3.00;79.70;;;;;;5092924;28;20038;-83
2023/01/21 05:08:44;;;;;;;15.18;10.63;;;3.00;79.70;;;;;;5087423;28;20031;-84
2023/01/21 05:11:13;;;;;;;14.23;9.77;;;3.00;79.70;;;;;;5075444;28;20099;-84
2023/01/21 05:13:38;;;;;;;13.90;9.38;;;3.00;79.70;;;;;;5078261;28;20032;-84
2023/01/21 05:16:07;;;;;;;13.65;8.95;;;3.00;79.70;;;;;;5081152;28;20357;-83
2023/01/21 05:18:33;;;;;;;15.10;10.02;;;2.90;79.70;;;;;;5060304;28;20481;-84
2023/01/21 05:20:58;;;;;;;15.93;9.40;;;2.90;79.70;;;;;;5048167;28;20582;-84
2023/01/21 05:23:24;;;;;;;15.75;9.90;;;2.90;79.70;;;;;;5079198;28;20028;-83
2023/01/21 05:25:50;;;;;;;14.43;8.90;;;2.90;79.70;;;;;;5064848;28;20050;-84
2023/01/21 05:28:16;;;;;;;16.60;10.88;;;2.90;79.70;;;;;;5043964;28;20030;-83
2023/01/21 05:30:41;;;;;;;14.02;9.90;;;2.90;79.70;;;;;;5081936;28;20481;-83
2023/01/21 05:33:07;;;;;;;16.48;10.45;;;2.90;79.70;;;;;;5067098;28;20024;-83
2023/01/21 05:35:34;;;;;;;14.55;10.18;;;2.90;79.70;;;;;;5058197;28;20059;-83
2023/01/21 05:38:00;;;;;;;16.48;10.20;;;2.90;79.70;;;;;;5076523;28;20085;-83
2023/01/21 05:40:26;;;;;;;14.73;9.57;;;2.90;79.60;;;;;;5082624;28;20431;-83
2023/01/21 05:42:51;;;;;;;14.15;9.27;;;2.90;79.60;;;;;;5052214;28;20036;-83
2023/01/21 05:45:17;;;;;;;15.55;10.40;;;2.90;79.70;;;;;;5063972;28;20112;-84
2023/01/21 05:47:43;;;;;;;15.13;10.73;;;2.90;79.60;;;;;;5036764;28;20127;-83
2023/01/21 05:50:10;;;;;;;14.75;9.85;;;2.80;79.60;;;;;;5071132;28;20095;-83
2023/01/21 05:52:36;;;;;;;16.55;10.93;;;2.90;79.60;;;;;;5074653;28;20021;-83
2023/01/21 05:55:03;;;;;;;15.00;10.02;;;2.90;79.60;;;;;;5059801;28;20028;-83
2023/01/21 05:57:29;;;;;;;16.45;11.27;;;2.90;79.60;;;;;;5091658;28;20060;-84
2023/01/21 05:59:55;;;;;;;14.60;10.27;;;2.90;79.70;;;;;;5076192;28;20439;-83
2023/01/21 06:02:21;;;;;;;14.95;9.73;;;2.90;79.70;;;;;;5056339;28;20145;-84
2023/01/21 06:04:46;;;;;;;14.85;10.23;;;2.90;79.70;;;;;;5057522;28;20032;-83
2023/01/21 06:07:12;;;;;;;14.23;9.48;;;2.80;79.60;;;;;;5058502;28;20043;-83
2023/01/21 06:09:38;;;;;;;16.10;10.60;;;2.80;79.60;;;;;;5089597;28;20039;-84
2023/01/21 06:12:04;;;;;;;15.85;10.63;;;2.80;79.60;;;;;;5060725;28;20029;-83
2023/01/21 06:14:30;;;;;;;15.32;9.85;;;2.80;79.60;;;;;;5043064;28;20469;-84
2023/01/21 06:16:55;;;;;;;16.80;10.70;;;2.80;79.60;;;;;;5064138;28;20036;-84
2023/01/21 06:19:21;;;;;;;17.25;11.07;;;2.90;79.70;;;;;;5059328;28;20110;-85
2023/01/21 06:21:47;;;;;;;15.38;10.27;;;2.80;79.60;;;;;;5078369;28;20163;-82
2023/01/21 06:24:13;;;;;;;17.95;10.95;;;2.80;79.60;;;;;;5023868;28;1316286;-82
2023/01/21 06:26:39;;;;;;;16.30;11.18;;;2.80;79.60;;;;;;5083464;28;20366;-82
2023/01/21 06:29:04;;;;;;;16.55;10.80;;;2.80;79.60;;;;;;5058582;28;20047;-84
2023/01/21 06:31:30;;;;;;;17.00;10.93;;;2.80;79.60;;;;;;5060998;28;20031;-84
2023/01/21 06:33:56;;;;;;;17.55;11.52;;;2.80;79.60;;;;;;5058360;28;20465;-84
2023/01/21 06:36:22;;;;;;;20.30;12.38;;;2.80;79.60;;;;;;5078089;28;20028;-84
2023/01/21 06:38:48;;;;;;;18.65;10.48;;;2.80;79.50;;;;;;5076904;28;20024;-83
2023/01/21 06:41:13;;;;;;;17.08;11.13;;;2.80;79.60;;;;;;5091893;28;20066;-84
2023/01/21 06:43:39;;;;;;;17.33;11.23;;;2.80;79.50;;;;;;5079119;28;20032;-81
2023/01/21 06:46:05;;;;;;;16.90;10.55;;;2.80;79.50;;;;;;5067919;28;20485;-83
2023/01/21 06:48:31;;;;;;;17.33;10.43;;;2.90;79.50;;;;;;5073714;28;20031;-83
2023/01/21 06:50:59;;;;;;;17.35;11.55;;;2.80;79.50;;;;;;5037006;28;20464;-84
2023/01/21 06:53:25;;;;;;;17.85;11.93;;;2.90;79.60;;;;;;5083827;28;20092;-84
2023/01/21 06:55:51;;;;;;;18.08;11.90;;;2.80;79.50;;;;;;5059860;28;20436;-84
2023/01/21 06:58:17;;;;;;;19.38;11.98;;;2.90;79.50;;;;;;5077138;28;20431;-86
2023/01/21 07:00:43;;;;;;;17.15;10.80;;;2.80;79.50;;;;;;5075137;28;20027;-83
2023/01/21 07:03:09;;;;;;;19.33;11.95;;;2.90;79.60;;;;;;5054734;28;20115;-83
2023/01/21 07:05:34;;;;;;;19.92;11.80;;;2.90;79.50;;;;;;5069878;28;20032;-84
2023/01/21 07:08:00;;;;;;;18.48;11.77;;;2.90;79.60;;;;;;5074090;28;20043;-85
2023/01/21 07:10:26;;;;;;;18.40;11.70;;;2.90;79.60;;;;;;5073888;28;20024;-84
2023/01/21 07:12:52;;;;;;;20.83;12.07;;;2.90;79.60;;;;;;5060073;28;20020;-84
2023/01/21 07:15:18;;;;;;;21.65;12.18;;;2.90;79.60;;;;;;5058142;28;20028;-83
2023/01/21 07:17:43;;;;;;;18.90;11.30;;;2.90;79.50;;;;;;5077204;28;20211;-80
2023/01/21 07:20:11;;;;;;;18.63;11.05;;;2.90;80.20;;;;;;5094444;28;20028;-84
2023/01/21 07:22:37;;;;;;;19.83;12.07;;;2.90;79.60;;;;;;5083779;28;20030;-83
2023/01/21 07:25:04;;;;;;;17.92;10.85;;;2.90;79.50;;;;;;5075317;28;20055;-82
2023/01/21 07:27:29;;;;;;;21.02;11.60;;;2.90;79.50;;;;;;5047513;28;20032;-83
2023/01/21 07:29:55;;;;;;;17.90;11.82;;;2.90;79.50;;;;;;5062949;28;20508;-83
2023/01/21 07:32:21;;;;;;;18.80;10.57;;;2.90;79.60;;;;;;5064894;28;20024;-83
2023/01/21 07:34:47;;;;;;;19.73;12.40;;;2.90;79.60;;;;;;5083208;28;20052;-84
2023/01/21 07:37:12;;;;;;;18.38;11.63;;;2.90;79.60;;;;;;5045799;28;20111;-83
2023/01/21 07:39:38;;;;;;;18.13;10.35;;;2.90;79.60;;;;;;5099605;28;20147;-84
2023/01/21 07:42:04;;;;;;;19.33;11.15;;;2.90;79.60;;;;;;5064282;28;20057;-83
2023/01/21 07:44:30;;;;;;;20.17;11.30;;;2.90;79.60;;;;;;5077606;28;20464;-84
2023/01/21 07:46:55;;;;;;;19.77;11.43;;;2.90;79.60;;;;;;5051202;28;20067;-83
2023/01/21 07:49:21;;;;;;;21.38;12.75;;;2.90;79.60;;;;;;5075905;28;20431;-82
2023/01/21 07:51:47;;;;;;;20.23;11.35;;;3.00;79.70;;;;;;5070680;28;20411;-82
2023/01/21 07:54:14;;;;;;;19.00;11.55;;;3.00;79.70;;;;;;5052112;28;20074;-83
2023/01/21 07:56:40;;;;;;;19.10;12.35;;;3.00;79.60;;;;;;5069999;28;20488;-79
2023/01/21 07:59:05;;;;;;;20.95;12.05;;;3.00;79.60;;;;;;5034353;28;20035;-82
2023/01/21 08:01:31;;;;;;;19.17;11.77;;;3.00;79.60;;;;;;5077053;28;20489;-80
2023/01/21 08:03:58;;;;;;;20.60;11.07;;;3.00;79.60;;;;;;5077643;28;20584;-81
2023/01/21 08:06:24;;;;;;;21.52;11.95;;;3.00;79.70;;;;;;5076432;28;20024;-82
2023/01/21 08:08:50;;;;;;;17.48;10.50;;;3.00;79.60;;;;;;5028187;28;20131;-82
2023/01/21 08:11:16;;;;;;;16.17;10.23;;;3.00;79.60;;;;;;5073274;28;20021;-82
2023/01/21 08:13:42;;;;;;;17.73;10.80;;;3.10;79.70;;;;;;5063273;28;20388;-82
2023/01/21 08:16:10;;;;;;;19.30;11.13;;;3.10;79.70;;;;;;5063028;28;20326;-83
2023/01/21 08:18:36;;;;;;;19.45;11.25;;;3.00;79.70;;;;;;5061033;28;20081;-79
2023/01/21 08:21:02;;;;;;;19.75;11.45;;;3.10;79.70;;;;;;5091731;28;20086;-85
2023/01/21 08:23:28;;;;;;;17.92;11.07;;;3.10;79.70;;;;;;5076153;28;20249;-82
2023/01/21 08:25:54;;;;;;;20.45;12.45;;;3.10;79.70;;;;;;5087727;28;20035;-81
2023/01/21 08:28:21;;;;;;;18.10;11.30;;;3.10;79.60;;;;;;5065310;28;20235;-83
2023/01/21 08:30:47;;;;;;;19.92;11.93;;;3.10;79.60;;;;;;5075068;28;20029;-84
2023/01/21 08:33:13;;;;;;;20.30;11.80;;;3.10;79.60;;;;;;5071142;28;20033;-81
2023/01/21 08:35:39;;;;;;;18.38;11.43;;;3.10;79.60;;;;;;5055763;28;20528;-88
2023/01/21 08:38:05;;;;;;;18.77;11.73;;;3.10;79.60;;;;;;5063195;28;20051;-81
2023/01/21 08:40:31;;;;;;;19.33;11.82;;;3.10;79.70;;;;;;5065410;28;20020;-83
2023/01/21 08:42:58;;;;;;;20.85;12.95;;;3.10;79.60;;;;;;5055231;28;20035;-81
2023/01/21 08:45:24;;;;;;;19.58;13.48;;;3.20;79.70;;;;;;5041249;28;20040;-82
2023/01/21 08:47:50;;;;;;;21.52;11.95;;;3.10;79.70;;;;;;5078748;28;20043;-82
2023/01/21 08:50:16;;;;;;;20.90;12.63;;;3.20;79.70;;;;;;5059552;28;20024;-84
2023/01/21 08:52:42;;;;;;;19.70;12.15;;;3.20;79.70;;;;;;5074376;28;20124;-83
2023/01/21 08:55:08;;;;;;;18.85;11.98;;;3.20;79.70;;;;;;5057455;28;20391;-82
2023/01/21 08:57:33;;;;;;;18.23;11.77;;;3.20;79.70;;;;;;5046436;28;20039;-83
2023/01/21 08:59:59;;;;;;;21.15;12.85;;;3.20;79.70;;;;;;5062964;28;20454;-81
2023/01/21 09:02:25;;;;;;;19.60;12.70;;;3.20;79.70;;;;;;5077054;28;20107;-82
2023/01/21 09:04:50;;;;;;;20.85;11.85;;;3.20;79.70;;;;;;5044678;28;20032;-82
2023/01/21 09:07:16;;;;;;;20.10;12.13;;;3.20;79.70;;;;;;5064959;28;20085;-84
2023/01/21 09:09:42;;;;;;;19.30;11.73;;;3.30;79.80;;;;;;5080457;28;20024;-83
2023/01/21 09:12:08;;;;;;;19.23;12.55;;;3.20;79.70;;;;;;5071689;28;20492;-83
2023/01/21 09:14:33;;;;;;;17.58;11.02;;;3.30;79.80;;;;;;5061207;28;20446;-84
2023/01/21 09:16:59;;;;;;;18.70;11.70;;;3.30;79.80;;;;;;5073720;28;20058;-82
2023/01/21 09:19:26;;;;;;;17.98;11.75;;;3.30;79.70;;;;;;5038350;28;20031;-83
2023/01/21 09:21:53;;;;;;;18.77;12.25;;;3.30;79.80;;;;;;5080401;28;20028;-83
2023/01/21 09:24:19;;;;;;;16.63;11.25;;;3.30;79.70;;;;;;5044190;28;20492;-83
2023/01/21 09:26:44;;;;;;;19.85;12.20;;;3.30;79.70;;;;;;5084815;28;20140;-83
2023/01/21 09:29:10;;;;;;;19.15;11.60;;;3.30;79.70;;;;;;5064908;28;20055;-83
2023/01/21 09:31:36;;;;;;;18.15;11.35;;;3.30;79.70;;;;;;5062625;28;20032;-83
2023/01/21 09:34:04;;;;;;;17.80;10.98;;;3.40;79.80;;;;;;5062675;28;20039;-83
2023/01/21 09:36:32;;;;;;;18.05;11.65;;;3.30;79.80;;;;;;5083599;28;20036;-83
2023/01/21 09:38:58;;;;;;;19.85;12.77;;;3.30;79.80;;;;;;5077520;28;20028;-83
2023/01/21 09:41:47;;;;;;;16.02;10.57;;;3.40;79.80;;;;;;5080772;28;20027;-83
2023/01/21 09:44:35;;;;;;;18.25;11.30;;;3.40;79.90;;;;;;5084884;28;20024;-83
2023/01/21 09:47:18;;;;;;;19.25;11.52;;;3.40;79.80;;;;;;5078290;28;20062;-83
2023/01/21 09:50:10;;;;;;;15.70;10.70;;;3.40;79.80;;;;;;5093935;28;20016;-83
2023/01/21 09:52:44;;;;;;;18.25;11.07;;;3.40;79.90;;;;;;5062963;28;20020;-85
2023/01/21 09:55:19;;;;;;;18.30;10.68;;;3.40;79.80;;;;;;5092846;28;20051;-83
2023/01/21 09:58:06;;;;;;;16.42;10.52;;;3.40;79.90;;;;;;5077050;28;20036;-84
2023/01/21 10:00:40;;;;;;;17.00;10.93;;;3.40;79.90;;;;;;5091875;28;20024;-83
2023/01/21 10:03:18;;;;;;;18.02;11.52;;;3.40;79.80;;;;;;5078581;28;20028;-84
2023/01/21 10:05:56;;;;;;;16.58;10.27;;;3.50;79.90;;;;;;5076999;28;20468;-84
2023/01/21 10:08:44;;;;;;;17.77;11.07;;;3.40;79.90;;;;;;5077724;28;20036;-84
2023/01/21 10:11:31;;;;;;;17.23;10.77;;;3.50;80.00;;;;;;5077069;28;20036;-84
2023/01/21 10:14:06;;;;;;;17.63;11.27;;;3.50;79.90;;;;;;5061779;28;20039;-84
2023/01/21 10:16:42;;;;;;;17.45;10.65;;;3.50;80.50;;;;;;5080788;28;20028;-83
2023/01/21 10:19:16;;;;;;;16.50;10.57;;;3.50;79.90;;;;;;5060600;28;20024;-85
2023/01/21 10:21:55;;;;;;;16.92;10.77;;;3.50;79.90;;;;;;5079410;28;20062;-84
2023/01/21 10:24:25;;;;;;;15.48;9.63;;;3.50;79.90;;;;;;5079350;28;20043;-84
2023/01/21 10:26:52;;;;;;;17.55;10.70;;;3.50;79.90;;;;;;5078357;28;20042;-85
2023/01/21 10:29:22;;;;;;;18.30;11.32;;;3.60;80.00;;;;;;5058384;28;20115;-84
2023/01/21 10:31:58;;;;;;;16.23;10.73;;;3.60;80.00;;;;;;5060870;28;20108;-85
2023/01/21 10:34:30;;;;;;;15.65;10.05;;;3.60;80.00;;;;;;5058211;28;20016;-84
2023/01/21 10:36:58;;;;;;;17.25;10.65;;;3.60;80.00;;;;;;5065391;28;20077;-84
2023/01/21 10:39:30;;;;;;;18.30;11.43;;;3.60;80.00;;;;;;5074701;28;20054;-84
2023/01/21 10:41:59;;;;;;;17.52;10.45;;;3.60;80.00;;;;;;5089936;28;20520;-84
2023/01/21 10:44:36;;;;;;;20.65;13.25;;;3.70;80.00;;;;;;5053526;28;20071;-83
2023/01/21 10:47:21;;;;;;;18.65;12.02;;;3.60;80.00;;;;;;5059702;28;20482;-84
2023/01/21 10:49:47;;;;;;;17.33;10.68;;;3.70;80.10;;;;;;5058278;28;20032;-83
2023/01/21 10:52:22;;;;;;;17.30;10.93;;;3.70;80.10;;;;;;5072593;28;20020;-84
2023/01/21 10:55:07;;;;;;;17.90;11.43;;;3.70;80.20;;;;;;5091390;28;20476;-84
2023/01/21 10:57:47;;;;;;;18.83;11.48;;;3.70;80.20;;;;;;5070280;28;20424;-84
2023/01/21 11:00:25;;;;;;;16.58;11.60;;;3.70;80.20;;;;;;5059459;28;20119;-82
2023/01/21 11:02:55;;;;;;;17.25;11.18;;;3.70;80.20;;;;;;5071834;28;20028;-83
2023/01/21 11:05:23;;;;;;;17.20;10.95;;;3.70;80.10;;;;;;5084208;28;20024;-84
2023/01/21 11:07:49;;;;;;;17.23;11.10;;;3.80;80.20;;;;;;5081110;28;20028;-84
2023/01/21 11:10:20;;;;;;;19.20;11.93;;;3.80;80.20;;;;;;5065416;28;20028;-83
2023/01/21 11:12:47;;;;;;;18.25;11.15;;;3.80;80.20;;;;;;5071984;28;20065;-84
2023/01/21 11:15:16;;;;;;;17.13;10.70;;;3.80;80.20;;;;;;5082733;28;20066;-84
2023/01/21 11:17:46;;;;;;;20.42;11.75;;;3.80;80.20;;;;;;5058385;28;20063;-83
2023/01/21 11:20:41;;;;;;;18.00;11.57;;;3.80;80.30;;;;;;5076952;28;20070;-84
2023/01/21 11:23:31;;;;;;;18.97;11.67;;;3.80;80.30;;;;;;5074476;28;20101;-83
2023/01/21 11:26:04;;;;;;;17.88;10.75;;;3.90;80.30;;;;;;5071735;28;20868;-83
2023/01/21 11:28:31;;;;;;;19.05;11.75;;;3.90;80.30;;;;;;5100176;28;20034;-86
2023/01/21 11:31:10;;;;;;;17.90;11.02;;;3.90;80.30;;;;;;5062468;28;20055;-85
2023/01/21 11:33:37;;;;;;;16.17;10.57;;;3.90;80.30;;;;;;5068834;28;20026;-84
2023/01/21 11:36:14;;;;;;;16.38;10.40;;;3.90;80.30;;;;;;5068093;28;20115;-82
2023/01/21 11:38:41;;;;;;;14.85;9.85;;;4.00;80.30;;;;;;5092185;28;20112;-81
2023/01/21 11:41:20;;;;;;;14.95;9.85;;;4.00;80.30;;;;;;5077803;28;20112;-81
2023/01/21 11:43:49;;;;;;;17.70;11.00;;;4.00;80.30;;;;;;5096835;28;20031;-84
2023/01/21 11:46:33;;;;;;;15.63;9.73;;;4.00;80.30;;;;;;5095867;28;20032;-82
2023/01/21 11:49:08;;;;;;;16.33;11.20;;;4.00;80.30;;;;;;5075613;28;20043;-83
2023/01/21 11:51:35;;;;;;;16.77;10.98;;;4.00;80.40;;;;;;5092104;28;20028;-82
2023/01/21 11:54:21;;;;;;;15.48;10.05;;;4.00;80.30;;;;;;5066371;28;20035;-81
2023/01/21 11:57:02;;;;;;;16.38;10.68;;;4.00;80.40;;;;;;5069662;28;20036;-84
2023/01/21 11:59:42;;;;;;;16.45;10.80;;;4.00;80.40;;;;;;5075412;28;20032;-84
2023/01/21 12:02:20;;;;;;;16.23;10.40;;;4.00;80.40;;;;;;5091183;28;20435;-83
2023/01/21 12:04:55;;;;;;;17.73;10.70;;;4.00;80.40;;;;;;5090485;28;20024;-84
2023/01/21 12:07:27;;;;;;;16.33;9.98;;;4.10;80.40;;;;;;5067006;28;20035;-83
2023/01/21 12:10:06;;;;;;;15.63;10.13;;;4.10;80.40;;;;;;5067571;28;20028;-83
2023/01/21 12:12:47;;;;;;;15.50;9.45;;;4.10;80.40;;;;;;5082983;28;20028;-84
2023/01/21 12:15:26;;;;;;;16.27;9.82;;;4.10;80.40;;;;;;5086281;28;20495;-83
2023/01/21 12:18:18;;;;;;;16.10;10.73;;;4.10;80.40;;;;;;5079817;28;20070;-84
2023/01/21 12:20:53;;;;;;;14.07;8.98;;;4.10;80.50;;;;;;5071779;28;20032;-85
2023/01/21 12:23:48;;;;;;;13.85;9.30;;;4.10;80.40;;;;;;5076010;28;20028;-85
2023/01/21 12:26:23;;;;;;;14.15;9.15;;;4.10;80.40;;;;;;5073828;28;20040;-84
2023/01/21 12:28:55;;;;;;;14.55;9.13;;;4.10;80.40;;;;;;5059828;28;20507;-84
2023/01/21 12:31:41;;;;;;;15.25;9.55;;;4.20;80.50;;;;;;5057285;28;20036;-85
2023/01/21 12:34:13;;;;;;;14.88;9.55;;;4.10;80.50;;;;;;5085608;28;20024;-84
2023/01/21 12:37:18;;;;;;;14.82;9.48;;;4.20;80.50;;;;;;5098630;28;20035;-85
2023/01/21 12:39:47;;;;;;;14.05;8.57;;;4.20;80.50;;;;;;4975390;28;20074;-85
2023/01/21 12:42:16;;;;;;;12.80;8.57;;;4.20;80.50;;;;;;5058675;28;20043;-84
2023/01/21 12:44:50;;;;;;;14.80;8.93;;;4.20;80.50;;;;;;5083352;28;20121;-85
2023/01/21 12:47:35;;;;;;;13.27;8.93;;;4.20;80.50;;;;;;5075082;28;20040;-84
2023/01/21 12:50:10;;;;;;;13.95;9.52;;;4.20;80.50;;;;;;5091991;28;20024;-86
2023/01/21 12:52:41;;;;;;;13.45;8.60;;;4.30;80.50;;;;;;5062712;28;20037;-86
2023/01/21 12:55:19;;;;;;;13.15;8.13;;;4.30;80.50;;;;;;5083675;28;20028;-85
2023/01/21 12:58:13;;;;;;;13.35;8.85;;;4.30;80.50;;;;;;5060564;28;20039;-84